sensor_id;sensor_type;location;lat;lon;timestamp;pressure;altitude;pressure_sealevel;temperature
68027;BMP180;54819;48.030;14.710;2023-04-03T00:01:06;98025.60;;;8.00
68027;BMP180;54819;48.030;14.710;2023-04-03T00:03:33;98025.60;;;8.00
68027;BMP180;54819;48.030;14.710;2023-04-03T00:06:02;98021.20;;;8.00
68027;BMP180;54819;48.030;14.710;2023-04-03T00:08:29;98018.00;;;7.88
68027;BMP180;54819;48.030;14.710;2023-04-03T00:10:58;98021.40;;;7.90
68027;BMP180;54819;48.030;14.710;2023-04-03T00:13:25;98023.20;;;7.90
68027;BMP180;54819;48.030;14.710;2023-04-03T00:15:53;98016.40;;;7.90
68027;BMP180;54819;48.030;14.710;2023-04-03T00:18:20;98016.60;;;7.94
68027;BMP180;54819;48.030;14.710;2023-04-03T00:20:48;98021.20;;;7.94
68027;BMP180;54819;48.030;14.710;2023-04-03T00:23:14;98017.00;;;7.98
68027;BMP180;54819;48.030;14.710;2023-04-03T00:25:41;98023.40;;;7.90
68027;BMP180;54819;48.030;14.710;2023-04-03T00:28:09;98020.00;;;7.94
68027;BMP180;54819;48.030;14.710;2023-04-03T00:30:36;98011.40;;;7.90
68027;BMP180;54819;48.030;14.710;2023-04-03T00:33:03;98013.40;;;7.90
68027;BMP180;54819;48.030;14.710;2023-04-03T00:35:30;98010.60;;;7.92
68027;BMP180;54819;48.030;14.710;2023-04-03T00:37:57;98015.40;;;7.96
68027;BMP180;54819;48.030;14.710;2023-04-03T00:40:26;98020.60;;;7.90
68027;BMP180;54819;48.030;14.710;2023-04-03T00:42:59;98027.00;;;7.90
68027;BMP180;54819;48.030;14.710;2023-04-03T00:45:39;98025.00;;;7.90
68027;BMP180;54819;48.030;14.710;2023-04-03T00:48:13;98023.60;;;7.90
68027;BMP180;54819;48.030;14.710;2023-04-03T00:50:42;98018.20;;;7.90
68027;BMP180;54819;48.030;14.710;2023-04-03T00:53:18;98025.60;;;7.90
68027;BMP180;54819;48.030;14.710;2023-04-03T00:55:47;98021.00;;;7.90
68027;BMP180;54819;48.030;14.710;2023-04-03T00:58:17;98026.40;;;7.90
68027;BMP180;54819;48.030;14.710;2023-04-03T01:00:54;98026.00;;;7.90
68027;BMP180;54819;48.030;14.710;2023-04-03T01:03:24;98028.80;;;7.90
68027;BMP180;54819;48.030;14.710;2023-04-03T01:05:52;98024.80;;;7.90
68027;BMP180;54819;48.030;14.710;2023-04-03T01:08:19;98020.20;;;7.90
68027;BMP180;54819;48.030;14.710;2023-04-03T01:10:48;98021.00;;;7.86
68027;BMP180;54819;48.030;14.710;2023-04-03T01:13:34;98020.80;;;7.80
68027;BMP180;54819;48.030;14.710;2023-04-03T01:16:04;98030.00;;;7.80
68027;BMP180;54819;48.030;14.710;2023-04-03T01:18:33;98031.20;;;7.80
68027;BMP180;54819;48.030;14.710;2023-04-03T01:26:36;98031.40;;;7.80
68027;BMP180;54819;48.030;14.710;2023-04-03T01:29:03;98040.80;;;7.80
68027;BMP180;54819;48.030;14.710;2023-04-03T01:31:59;98039.00;;;7.80
68027;BMP180;54819;48.030;14.710;2023-04-03T01:34:28;98033.40;;;7.72
68027;BMP180;54819;48.030;14.710;2023-04-03T01:36:55;98038.20;;;7.76
68027;BMP180;54819;48.030;14.710;2023-04-03T01:39:22;98043.00;;;7.76
68027;BMP180;54819;48.030;14.710;2023-04-03T01:41:49;98046.60;;;7.72
68027;BMP180;54819;48.030;14.710;2023-04-03T01:44:24;98039.20;;;7.70
68027;BMP180;54819;48.030;14.710;2023-04-03T01:46:51;98041.60;;;7.70
68027;BMP180;54819;48.030;14.710;2023-04-03T01:49:18;98042.60;;;7.70
68027;BMP180;54819;48.030;14.710;2023-04-03T01:51:45;98040.60;;;7.70
68027;BMP180;54819;48.030;14.710;2023-04-03T01:54:12;98038.40;;;7.70
68027;BMP180;54819;48.030;14.710;2023-04-03T01:56:39;98040.00;;;7.70
68027;BMP180;54819;48.030;14.710;2023-04-03T01:59:07;98045.80;;;7.70
68027;BMP180;54819;48.030;14.710;2023-04-03T02:01:34;98045.20;;;7.52
68027;BMP180;54819;48.030;14.710;2023-04-03T02:04:01;98041.20;;;7.60
68027;BMP180;54819;48.030;14.710;2023-04-03T02:06:27;98041.00;;;7.64
68027;BMP180;54819;48.030;14.710;2023-04-03T02:08:54;98041.80;;;7.66
68027;BMP180;54819;48.030;14.710;2023-04-03T02:11:20;98038.60;;;7.60
68027;BMP180;54819;48.030;14.710;2023-04-03T02:13:47;98036.40;;;7.60
68027;BMP180;54819;48.030;14.710;2023-04-03T02:16:14;98036.20;;;7.60
68027;BMP180;54819;48.030;14.710;2023-04-03T02:18:41;98039.60;;;7.60
68027;BMP180;54819;48.030;14.710;2023-04-03T02:21:08;98035.80;;;7.60
68027;BMP180;54819;48.030;14.710;2023-04-03T02:23:34;98042.00;;;7.60
68027;BMP180;54819;48.030;14.710;2023-04-03T02:26:09;98040.80;;;7.60
68027;BMP180;54819;48.030;14.710;2023-04-03T02:28:37;98037.00;;;7.60
68027;BMP180;54819;48.030;14.710;2023-04-03T02:31:04;98035.40;;;7.60
68027;BMP180;54819;48.030;14.710;2023-04-03T02:33:34;98037.80;;;7.60
68027;BMP180;54819;48.030;14.710;2023-04-03T02:36:08;98031.80;;;7.60
68027;BMP180;54819;48.030;14.710;2023-04-03T02:38:36;98034.60;;;7.60
68027;BMP180;54819;48.030;14.710;2023-04-03T02:41:07;98032.60;;;7.60
68027;BMP180;54819;48.030;14.710;2023-04-03T02:43:34;98040.40;;;7.62
68027;BMP180;54819;48.030;14.710;2023-04-03T02:46:03;98038.60;;;7.66
68027;BMP180;54819;48.030;14.710;2023-04-03T02:48:30;98037.60;;;7.60
68027;BMP180;54819;48.030;14.710;2023-04-03T02:50:57;98037.80;;;7.60
68027;BMP180;54819;48.030;14.710;2023-04-03T02:53:24;98041.80;;;7.60
68027;BMP180;54819;48.030;14.710;2023-04-03T02:55:51;98041.60;;;7.60
68027;BMP180;54819;48.030;14.710;2023-04-03T02:58:18;98038.40;;;7.60
68027;BMP180;54819;48.030;14.710;2023-04-03T03:00:45;98038.60;;;7.60
68027;BMP180;54819;48.030;14.710;2023-04-03T03:03:11;98039.60;;;7.56
68027;BMP180;54819;48.030;14.710;2023-04-03T03:05:40;98041.40;;;7.50
68027;BMP180;54819;48.030;14.710;2023-04-03T03:08:06;98040.20;;;7.50
68027;BMP180;54819;48.030;14.710;2023-04-03T03:10:34;98044.80;;;7.50
68027;BMP180;54819;48.030;14.710;2023-04-03T03:13:01;98041.20;;;7.50
68027;BMP180;54819;48.030;14.710;2023-04-03T03:15:28;98036.80;;;7.40
68027;BMP180;54819;48.030;14.710;2023-04-03T03:17:55;98037.60;;;7.50
68027;BMP180;54819;48.030;14.710;2023-04-03T03:20:21;98035.60;;;7.50
68027;BMP180;54819;48.030;14.710;2023-04-03T03:22:49;98038.40;;;7.50
68027;BMP180;54819;48.030;14.710;2023-04-03T03:25:15;98035.60;;;7.40
68027;BMP180;54819;48.030;14.710;2023-04-03T03:27:42;98034.20;;;7.40
68027;BMP180;54819;48.030;14.710;2023-04-03T03:30:09;98035.60;;;7.40
68027;BMP180;54819;48.030;14.710;2023-04-03T03:32:36;98036.60;;;7.40
68027;BMP180;54819;48.030;14.710;2023-04-03T03:35:03;98037.00;;;7.40
68027;BMP180;54819;48.030;14.710;2023-04-03T03:37:30;98035.40;;;7.40
68027;BMP180;54819;48.030;14.710;2023-04-03T03:39:57;98041.60;;;7.40
68027;BMP180;54819;48.030;14.710;2023-04-03T03:42:24;98038.40;;;7.40
68027;BMP180;54819;48.030;14.710;2023-04-03T03:44:50;98042.40;;;7.40
68027;BMP180;54819;48.030;14.710;2023-04-03T03:47:18;98039.20;;;7.40
68027;BMP180;54819;48.030;14.710;2023-04-03T03:49:45;98039.00;;;7.40
68027;BMP180;54819;48.030;14.710;2023-04-03T03:52:11;98036.80;;;7.40
68027;BMP180;54819;48.030;14.710;2023-04-03T03:54:38;98039.40;;;7.38
68027;BMP180;54819;48.030;14.710;2023-04-03T03:57:05;98043.20;;;7.36
68027;BMP180;54819;48.030;14.710;2023-04-03T03:59:32;98041.40;;;7.30
68027;BMP180;54819;48.030;14.710;2023-04-03T04:01:59;98039.00;;;7.30
68027;BMP180;54819;48.030;14.710;2023-04-03T04:04:26;98044.40;;;7.20
68027;BMP180;54819;48.030;14.710;2023-04-03T04:06:52;98046.80;;;7.20
68027;BMP180;54819;48.030;14.710;2023-04-03T04:09:19;98044.80;;;7.18
68027;BMP180;54819;48.030;14.710;2023-04-03T04:11:46;98046.20;;;7.10
68027;BMP180;54819;48.030;14.710;2023-04-03T04:14:13;98044.80;;;7.10
68027;BMP180;54819;48.030;14.710;2023-04-03T04:16:40;98043.60;;;7.10
68027;BMP180;54819;48.030;14.710;2023-04-03T04:19:10;98042.60;;;7.10
68027;BMP180;54819;48.030;14.710;2023-04-03T04:21:37;98044.20;;;7.10
68027;BMP180;54819;48.030;14.710;2023-04-03T04:24:05;98052.60;;;7.10
68027;BMP180;54819;48.030;14.710;2023-04-03T04:26:32;98048.60;;;7.12
68027;BMP180;54819;48.030;14.710;2023-04-03T04:29:00;98050.20;;;7.18
68027;BMP180;54819;48.030;14.710;2023-04-03T04:31:27;98047.20;;;7.14
68027;BMP180;54819;48.030;14.710;2023-04-03T04:33:54;98051.60;;;7.10
68027;BMP180;54819;48.030;14.710;2023-04-03T04:36:21;98053.60;;;7.10
68027;BMP180;54819;48.030;14.710;2023-04-03T04:38:47;98057.00;;;7.10
68027;BMP180;54819;48.030;14.710;2023-04-03T04:41:14;98053.80;;;7.10
68027;BMP180;54819;48.030;14.710;2023-04-03T04:43:43;98055.00;;;7.10
68027;BMP180;54819;48.030;14.710;2023-04-03T04:46:10;98053.60;;;7.10
68027;BMP180;54819;48.030;14.710;2023-04-03T04:48:44;98054.00;;;7.12
68027;BMP180;54819;48.030;14.710;2023-04-03T04:51:11;98061.00;;;7.16
68027;BMP180;54819;48.030;14.710;2023-04-03T04:53:38;98061.60;;;7.18
68027;BMP180;54819;48.030;14.710;2023-04-03T04:56:06;98067.40;;;7.20
68027;BMP180;54819;48.030;14.710;2023-04-03T04:58:33;98063.00;;;7.10
68027;BMP180;54819;48.030;14.710;2023-04-03T05:01:03;98065.20;;;7.20
68027;BMP180;54819;48.030;14.710;2023-04-03T05:03:31;98062.60;;;7.22
68027;BMP180;54819;48.030;14.710;2023-04-03T05:05:59;98065.20;;;7.30
68027;BMP180;54819;48.030;14.710;2023-04-03T05:08:27;98063.40;;;7.30
68027;BMP180;54819;48.030;14.710;2023-04-03T05:10:54;98067.00;;;7.30
68027;BMP180;54819;48.030;14.710;2023-04-03T05:13:22;98072.40;;;7.30
68027;BMP180;54819;48.030;14.710;2023-04-03T05:15:49;98071.60;;;7.30
68027;BMP180;54819;48.030;14.710;2023-04-03T05:18:16;98074.00;;;7.40
68027;BMP180;54819;48.030;14.710;2023-04-03T05:20:43;98076.20;;;7.40
68027;BMP180;54819;48.030;14.710;2023-04-03T05:23:11;98076.20;;;7.40
68027;BMP180;54819;48.030;14.710;2023-04-03T05:25:38;98075.80;;;7.40
68027;BMP180;54819;48.030;14.710;2023-04-03T05:28:06;98080.60;;;7.30
68027;BMP180;54819;48.030;14.710;2023-04-03T05:30:33;98080.20;;;7.40
68027;BMP180;54819;48.030;14.710;2023-04-03T05:33:02;98080.00;;;7.42
68027;BMP180;54819;48.030;14.710;2023-04-03T05:35:37;98081.20;;;7.46
68027;BMP180;54819;48.030;14.710;2023-04-03T05:38:08;98088.00;;;7.50
68027;BMP180;54819;48.030;14.710;2023-04-03T05:40:35;98086.60;;;7.50
68027;BMP180;54819;48.030;14.710;2023-04-03T05:43:02;98090.80;;;7.50
68027;BMP180;54819;48.030;14.710;2023-04-03T05:45:31;98088.20;;;7.50
68027;BMP180;54819;48.030;14.710;2023-04-03T05:47:58;98090.00;;;7.50
68027;BMP180;54819;48.030;14.710;2023-04-03T05:50:25;98095.60;;;7.50
68027;BMP180;54819;48.030;14.710;2023-04-03T05:52:56;98093.80;;;7.58
68027;BMP180;54819;48.030;14.710;2023-04-03T05:55:25;98096.20;;;7.60
68027;BMP180;54819;48.030;14.710;2023-04-03T05:57:53;98095.60;;;7.60
68027;BMP180;54819;48.030;14.710;2023-04-03T06:00:20;98097.00;;;7.62
68027;BMP180;54819;48.030;14.710;2023-04-03T06:02:52;98100.20;;;7.70
68027;BMP180;54819;48.030;14.710;2023-04-03T06:05:22;98098.60;;;7.72
68027;BMP180;54819;48.030;14.710;2023-04-03T06:07:49;98101.00;;;7.80
68027;BMP180;54819;48.030;14.710;2023-04-03T06:10:16;98096.60;;;7.80
68027;BMP180;54819;48.030;14.710;2023-04-03T06:12:43;98095.40;;;7.90
68027;BMP180;54819;48.030;14.710;2023-04-03T06:15:11;98102.00;;;7.90
68027;BMP180;54819;48.030;14.710;2023-04-03T06:17:39;98104.20;;;7.92
68027;BMP180;54819;48.030;14.710;2023-04-03T06:20:07;98103.20;;;7.90
68027;BMP180;54819;48.030;14.710;2023-04-03T06:22:34;98110.00;;;8.00
68027;BMP180;54819;48.030;14.710;2023-04-03T06:25:01;98108.00;;;8.10
68027;BMP180;54819;48.030;14.710;2023-04-03T06:27:28;98110.40;;;8.12
68027;BMP180;54819;48.030;14.710;2023-04-03T06:29:54;98111.20;;;8.20
68027;BMP180;54819;48.030;14.710;2023-04-03T06:32:21;98111.20;;;8.28
68027;BMP180;54819;48.030;14.710;2023-04-03T06:34:48;98108.40;;;8.30
68027;BMP180;54819;48.030;14.710;2023-04-03T06:37:17;98104.20;;;8.38
68027;BMP180;54819;48.030;14.710;2023-04-03T06:39:45;98101.60;;;8.40
68027;BMP180;54819;48.030;14.710;2023-04-03T06:42:12;98104.80;;;8.50
68027;BMP180;54819;48.030;14.710;2023-04-03T06:44:47;98107.00;;;8.50
68027;BMP180;54819;48.030;14.710;2023-04-03T06:47:16;98101.20;;;8.60
68027;BMP180;54819;48.030;14.710;2023-04-03T06:49:43;98094.80;;;8.70
68027;BMP180;54819;48.030;14.710;2023-04-03T06:52:11;98090.40;;;8.80
68027;BMP180;54819;48.030;14.710;2023-04-03T06:54:39;98087.80;;;8.90
68027;BMP180;54819;48.030;14.710;2023-04-03T06:57:07;98093.40;;;9.00
68027;BMP180;54819;48.030;14.710;2023-04-03T06:59:34;98097.20;;;9.16
68027;BMP180;54819;48.030;14.710;2023-04-03T07:02:02;98093.40;;;9.34
68027;BMP180;54819;48.030;14.710;2023-04-03T07:04:28;98099.40;;;9.52
68027;BMP180;54819;48.030;14.710;2023-04-03T07:06:55;98097.60;;;9.70
68027;BMP180;54819;48.030;14.710;2023-04-03T07:09:22;98102.00;;;9.80
68027;BMP180;54819;48.030;14.710;2023-04-03T07:11:48;98103.60;;;9.90
68027;BMP180;54819;48.030;14.710;2023-04-03T07:14:15;98109.80;;;10.00
68027;BMP180;54819;48.030;14.710;2023-04-03T07:16:42;98107.80;;;10.10
68027;BMP180;54819;48.030;14.710;2023-04-03T07:19:09;98112.20;;;10.20
68027;BMP180;54819;48.030;14.710;2023-04-03T07:21:36;98114.80;;;10.32
68027;BMP180;54819;48.030;14.710;2023-04-03T07:24:03;98116.00;;;10.42
68027;BMP180;54819;48.030;14.710;2023-04-03T07:26:29;98120.80;;;10.50
68027;BMP180;54819;48.030;14.710;2023-04-03T07:28:56;98117.80;;;10.58
68027;BMP180;54819;48.030;14.710;2023-04-03T07:31:23;98119.40;;;10.60
68027;BMP180;54819;48.030;14.710;2023-04-03T07:33:51;98115.40;;;10.68
68027;BMP180;54819;48.030;14.710;2023-04-03T07:36:21;98121.80;;;10.60
68027;BMP180;54819;48.030;14.710;2023-04-03T07:38:48;98121.60;;;10.40
68027;BMP180;54819;48.030;14.710;2023-04-03T07:41:18;98113.80;;;10.30
68027;BMP180;54819;48.030;14.710;2023-04-03T07:43:46;98120.00;;;10.14
68027;BMP180;54819;48.030;14.710;2023-04-03T07:46:13;98116.20;;;10.18
68027;BMP180;54819;48.030;14.710;2023-04-03T07:48:40;98116.60;;;10.10
68027;BMP180;54819;48.030;14.710;2023-04-03T07:51:07;98118.60;;;10.10
68027;BMP180;54819;48.030;14.710;2023-04-03T07:53:33;98123.20;;;10.20
68027;BMP180;54819;48.030;14.710;2023-04-03T07:56:00;98122.40;;;10.18
68027;BMP180;54819;48.030;14.710;2023-04-03T07:58:30;98124.20;;;10.20
68027;BMP180;54819;48.030;14.710;2023-04-03T08:00:57;98122.60;;;10.18
68027;BMP180;54819;48.030;14.710;2023-04-03T08:03:23;98123.60;;;10.12
68027;BMP180;54819;48.030;14.710;2023-04-03T08:05:50;98124.40;;;10.20
68027;BMP180;54819;48.030;14.710;2023-04-03T08:08:21;98121.40;;;10.20
68027;BMP180;54819;48.030;14.710;2023-04-03T08:10:51;98121.80;;;10.00
68027;BMP180;54819;48.030;14.710;2023-04-03T08:13:19;98125.40;;;10.10
68027;BMP180;54819;48.030;14.710;2023-04-03T08:15:46;98120.40;;;10.08
68027;BMP180;54819;48.030;14.710;2023-04-03T08:18:14;98128.60;;;9.80
68027;BMP180;54819;48.030;14.710;2023-04-03T08:20:42;98120.40;;;9.70
68027;BMP180;54819;48.030;14.710;2023-04-03T08:23:10;98122.00;;;9.80
68027;BMP180;54819;48.030;14.710;2023-04-03T08:25:41;98128.20;;;9.78
68027;BMP180;54819;48.030;14.710;2023-04-03T08:28:12;98120.60;;;9.70
68027;BMP180;54819;48.030;14.710;2023-04-03T08:30:40;98120.40;;;9.76
68027;BMP180;54819;48.030;14.710;2023-04-03T08:33:08;98120.80;;;9.90
68027;BMP180;54819;48.030;14.710;2023-04-03T08:35:40;98128.80;;;10.06
68027;BMP180;54819;48.030;14.710;2023-04-03T08:38:09;98122.20;;;9.90
68027;BMP180;54819;48.030;14.710;2023-04-03T08:40:36;98126.60;;;10.00
68027;BMP180;54819;48.030;14.710;2023-04-03T08:45:57;98124.60;;;10.06
68027;BMP180;54819;48.030;14.710;2023-04-03T08:48:38;98121.20;;;10.10
68027;BMP180;54819;48.030;14.710;2023-04-03T08:51:20;98126.00;;;10.04
68027;BMP180;54819;48.030;14.710;2023-04-03T08:54:37;98125.20;;;10.10
68027;BMP180;54819;48.030;14.710;2023-04-03T08:57:10;98120.60;;;9.98
68027;BMP180;54819;48.030;14.710;2023-04-03T08:59:39;98130.20;;;10.10
68027;BMP180;54819;48.030;14.710;2023-04-03T09:02:25;98130.80;;;10.10
68027;BMP180;54819;48.030;14.710;2023-04-03T09:04:53;98134.60;;;10.10
68027;BMP180;54819;48.030;14.710;2023-04-03T09:07:35;98137.40;;;10.08
68027;BMP180;54819;48.030;14.710;2023-04-03T09:10:05;98129.20;;;9.90
68027;BMP180;54819;48.030;14.710;2023-04-03T09:12:39;98135.60;;;9.96
68027;BMP180;54819;48.030;14.710;2023-04-03T09:15:20;98137.40;;;9.88
68027;BMP180;54819;48.030;14.710;2023-04-03T09:18:15;98143.00;;;9.60
68027;BMP180;54819;48.030;14.710;2023-04-03T09:21:12;98141.60;;;9.50
68027;BMP180;54819;48.030;14.710;2023-04-03T09:23:46;98146.40;;;9.50
68027;BMP180;54819;48.030;14.710;2023-04-03T09:26:30;98147.60;;;9.60
68027;BMP180;54819;48.030;14.710;2023-04-03T09:29:06;98149.00;;;9.68
68027;BMP180;54819;48.030;14.710;2023-04-03T09:31:43;98150.80;;;9.70
68027;BMP180;54819;48.030;14.710;2023-04-03T09:34:32;98154.00;;;9.70
68027;BMP180;54819;48.030;14.710;2023-04-03T09:37:04;98148.60;;;9.78
68027;BMP180;54819;48.030;14.710;2023-04-03T09:39:50;98155.20;;;9.80
68027;BMP180;54819;48.030;14.710;2023-04-03T09:42:24;98157.20;;;9.80
68027;BMP180;54819;48.030;14.710;2023-04-03T09:45:04;98157.20;;;9.90
68027;BMP180;54819;48.030;14.710;2023-04-03T09:47:36;98157.40;;;10.04
68027;BMP180;54819;48.030;14.710;2023-04-03T09:52:45;98162.80;;;10.34
68027;BMP180;54819;48.030;14.710;2023-04-03T09:55:17;98163.00;;;10.50
68027;BMP180;54819;48.030;14.710;2023-04-03T09:57:46;98161.80;;;10.70
68027;BMP180;54819;48.030;14.710;2023-04-03T10:00:31;98159.80;;;10.80
68027;BMP180;54819;48.030;14.710;2023-04-03T10:02:59;98165.00;;;10.90
68027;BMP180;54819;48.030;14.710;2023-04-03T10:05:37;98162.80;;;10.90
68027;BMP180;54819;48.030;14.710;2023-04-03T10:10:47;98159.20;;;11.26
68027;BMP180;54819;48.030;14.710;2023-04-03T10:13:19;98161.00;;;11.40
68027;BMP180;54819;48.030;14.710;2023-04-03T10:15:58;98160.00;;;11.48
68027;BMP180;54819;48.030;14.710;2023-04-03T10:18:53;98159.80;;;11.66
68027;BMP180;54819;48.030;14.710;2023-04-03T10:25:20;98156.00;;;11.92
68027;BMP180;54819;48.030;14.710;2023-04-03T10:28:20;98157.60;;;12.20
68027;BMP180;54819;48.030;14.710;2023-04-03T10:34:44;98157.20;;;12.70
68027;BMP180;54819;48.030;14.710;2023-04-03T10:40:34;98154.20;;;13.08
68027;BMP180;54819;48.030;14.710;2023-04-03T10:46:55;98154.40;;;13.30
68027;BMP180;54819;48.030;14.710;2023-04-03T10:51:49;98153.20;;;13.06
68027;BMP180;54819;48.030;14.710;2023-04-03T10:54:36;98146.20;;;12.80
68027;BMP180;54819;48.030;14.710;2023-04-03T10:57:10;98136.80;;;12.70
68027;BMP180;54819;48.030;14.710;2023-04-03T10:59:51;98143.00;;;12.70
68027;BMP180;54819;48.030;14.710;2023-04-03T11:02:36;98142.20;;;12.80
68027;BMP180;54819;48.030;14.710;2023-04-03T11:05:28;98139.60;;;12.80
68027;BMP180;54819;48.030;14.710;2023-04-03T11:08:03;98131.00;;;12.90
68027;BMP180;54819;48.030;14.710;2023-04-03T11:10:44;98128.80;;;12.90
68027;BMP180;54819;48.030;14.710;2023-04-03T11:13:21;98131.40;;;12.90
68027;BMP180;54819;48.030;14.710;2023-04-03T11:15:51;98132.80;;;12.70
68027;BMP180;54819;48.030;14.710;2023-04-03T11:18:27;98125.20;;;12.50
68027;BMP180;54819;48.030;14.710;2023-04-03T11:21:09;98125.40;;;12.40
68027;BMP180;54819;48.030;14.710;2023-04-03T11:23:40;98127.60;;;12.30
68027;BMP180;54819;48.030;14.710;2023-04-03T11:26:19;98131.00;;;12.10
68027;BMP180;54819;48.030;14.710;2023-04-03T11:28:55;98130.40;;;11.90
68027;BMP180;54819;48.030;14.710;2023-04-03T11:36:58;98123.40;;;12.08
68027;BMP180;54819;48.030;14.710;2023-04-03T11:39:33;98115.80;;;12.10
68027;BMP180;54819;48.030;14.710;2023-04-03T11:44:46;98115.20;;;11.80
68027;BMP180;54819;48.030;14.710;2023-04-03T11:47:49;98117.80;;;11.68
68027;BMP180;54819;48.030;14.710;2023-04-03T11:50:43;98114.20;;;11.68
68027;BMP180;54819;48.030;14.710;2023-04-03T11:58:25;98112.00;;;11.50
68027;BMP180;54819;48.030;14.710;2023-04-03T12:01:08;98114.20;;;11.32
68027;BMP180;54819;48.030;14.710;2023-04-03T12:16:20;98117.80;;;10.10
68027;BMP180;54819;48.030;14.710;2023-04-03T12:22:16;98119.00;;;10.10
68027;BMP180;54819;48.030;14.710;2023-04-03T12:24:47;98120.60;;;10.10
68027;BMP180;54819;48.030;14.710;2023-04-03T12:27:38;98122.40;;;10.16
68027;BMP180;54819;48.030;14.710;2023-04-03T12:30:17;98118.20;;;10.10
68027;BMP180;54819;48.030;14.710;2023-04-03T12:32:57;98117.60;;;10.26
68027;BMP180;54819;48.030;14.710;2023-04-03T12:35:54;98108.00;;;10.40
68027;BMP180;54819;48.030;14.710;2023-04-03T12:41:49;98117.20;;;10.34
68027;BMP180;54819;48.030;14.710;2023-04-03T12:44:37;98122.60;;;10.12
68027;BMP180;54819;48.030;14.710;2023-04-03T12:47:23;98118.40;;;9.94
68027;BMP180;54819;48.030;14.710;2023-04-03T12:49:53;98123.60;;;9.66
68027;BMP180;54819;48.030;14.710;2023-04-03T12:52:41;98127.20;;;9.60
68027;BMP180;54819;48.030;14.710;2023-04-03T12:55:18;98122.60;;;9.40
68027;BMP180;54819;48.030;14.710;2023-04-03T12:57:45;98125.00;;;9.46
68027;BMP180;54819;48.030;14.710;2023-04-03T13:00:34;98111.40;;;9.42
68027;BMP180;54819;48.030;14.710;2023-04-03T13:03:03;98116.40;;;9.40
68027;BMP180;54819;48.030;14.710;2023-04-03T13:05:32;98118.80;;;9.40
68027;BMP180;54819;48.030;14.710;2023-04-03T13:08:10;98109.20;;;9.32
68027;BMP180;54819;48.030;14.710;2023-04-03T13:11:14;98115.80;;;9.32
68027;BMP180;54819;48.030;14.710;2023-04-03T13:13:55;98118.00;;;9.24
68027;BMP180;54819;48.030;14.710;2023-04-03T13:16:22;98110.20;;;9.02
68027;BMP180;54819;48.030;14.710;2023-04-03T13:18:53;98110.60;;;8.90
68027;BMP180;54819;48.030;14.710;2023-04-03T13:21:31;98102.80;;;8.80
68027;BMP180;54819;48.030;14.710;2023-04-03T13:24:02;98102.00;;;8.80
68027;BMP180;54819;48.030;14.710;2023-04-03T13:26:41;98101.40;;;8.88
68027;BMP180;54819;48.030;14.710;2023-04-03T13:29:23;98097.00;;;9.00
68027;BMP180;54819;48.030;14.710;2023-04-03T13:31:58;98094.00;;;9.30
68027;BMP180;54819;48.030;14.710;2023-04-03T13:34:36;98090.20;;;9.50
68027;BMP180;54819;48.030;14.710;2023-04-03T13:37:04;98093.20;;;9.50
68027;BMP180;54819;48.030;14.710;2023-04-03T13:39:35;98088.80;;;9.54
68027;BMP180;54819;48.030;14.710;2023-04-03T13:42:23;98090.40;;;9.60
68027;BMP180;54819;48.030;14.710;2023-04-03T13:45:21;98095.80;;;9.60
68027;BMP180;54819;48.030;14.710;2023-04-03T13:47:53;98095.80;;;9.36
68027;BMP180;54819;48.030;14.710;2023-04-03T13:50:24;98105.40;;;9.08
68027;BMP180;54819;48.030;14.710;2023-04-03T13:53:03;98102.60;;;8.90
68027;BMP180;54819;48.030;14.710;2023-04-03T13:55:58;98101.20;;;8.68
68027;BMP180;54819;48.030;14.710;2023-04-03T13:58:29;98104.60;;;8.54
68027;BMP180;54819;48.030;14.710;2023-04-03T14:01:19;98102.60;;;8.50
68027;BMP180;54819;48.030;14.710;2023-04-03T14:03:58;98105.00;;;8.40
68027;BMP180;54819;48.030;14.710;2023-04-03T14:06:29;98103.80;;;8.60
68027;BMP180;54819;48.030;14.710;2023-04-03T14:08:56;98101.00;;;8.70
68027;BMP180;54819;48.030;14.710;2023-04-03T14:11:29;98099.40;;;8.88
68027;BMP180;54819;48.030;14.710;2023-04-03T14:14:15;98093.60;;;8.90
68027;BMP180;54819;48.030;14.710;2023-04-03T14:16:47;98095.60;;;8.90
68027;BMP180;54819;48.030;14.710;2023-04-03T14:19:28;98096.20;;;8.90
68027;BMP180;54819;48.030;14.710;2023-04-03T14:21:56;98096.20;;;8.88
68027;BMP180;54819;48.030;14.710;2023-04-03T14:24:23;98093.80;;;8.80
68027;BMP180;54819;48.030;14.710;2023-04-03T14:26:53;98103.40;;;8.56
68027;BMP180;54819;48.030;14.710;2023-04-03T14:29:22;98102.60;;;8.60
68027;BMP180;54819;48.030;14.710;2023-04-03T14:31:50;98105.20;;;8.36
68027;BMP180;54819;48.030;14.710;2023-04-03T14:34:29;98105.20;;;8.30
68027;BMP180;54819;48.030;14.710;2023-04-03T14:36:56;98104.80;;;8.40
68027;BMP180;54819;48.030;14.710;2023-04-03T14:39:23;98104.00;;;8.40
68027;BMP180;54819;48.030;14.710;2023-04-03T14:41:49;98110.00;;;8.60
68027;BMP180;54819;48.030;14.710;2023-04-03T14:44:16;98105.40;;;8.70
68027;BMP180;54819;48.030;14.710;2023-04-03T14:46:44;98109.60;;;8.50
68027;BMP180;54819;48.030;14.710;2023-04-03T14:49:26;98108.20;;;8.50
68027;BMP180;54819;48.030;14.710;2023-04-03T14:51:57;98109.20;;;8.50
68027;BMP180;54819;48.030;14.710;2023-04-03T14:54:25;98115.60;;;8.60
68027;BMP180;54819;48.030;14.710;2023-04-03T14:56:56;98116.00;;;8.50
68027;BMP180;54819;48.030;14.710;2023-04-03T14:59:24;98116.80;;;8.44
68027;BMP180;54819;48.030;14.710;2023-04-03T15:01:51;98117.20;;;8.40
68027;BMP180;54819;48.030;14.710;2023-04-03T15:04:20;98120.60;;;8.20
68027;BMP180;54819;48.030;14.710;2023-04-03T15:06:48;98122.20;;;8.20
68027;BMP180;54819;48.030;14.710;2023-04-03T15:09:26;98119.40;;;8.20
68027;BMP180;54819;48.030;14.710;2023-04-03T15:11:55;98120.80;;;8.20
68027;BMP180;54819;48.030;14.710;2023-04-03T15:14:22;98118.00;;;8.20
68027;BMP180;54819;48.030;14.710;2023-04-03T15:17:13;98121.20;;;8.22
68027;BMP180;54819;48.030;14.710;2023-04-03T15:19:40;98119.20;;;8.18
68027;BMP180;54819;48.030;14.710;2023-04-03T15:22:14;98118.00;;;8.20
68027;BMP180;54819;48.030;14.710;2023-04-03T15:24:42;98116.60;;;8.22
68027;BMP180;54819;48.030;14.710;2023-04-03T15:27:10;98114.40;;;8.22
68027;BMP180;54819;48.030;14.710;2023-04-03T15:29:40;98119.20;;;8.06
68027;BMP180;54819;48.030;14.710;2023-04-03T15:32:08;98123.20;;;8.04
68027;BMP180;54819;48.030;14.710;2023-04-03T15:34:36;98125.80;;;8.00